sensor_id;sensor_type;location;lat;lon;timestamp;temperature;humidity
51476;DHT22;37554;50.362;7.568;2023-08-31T00:00:09;21.30;61.80
51476;DHT22;37554;50.362;7.568;2023-08-31T00:02:36;21.20;61.70
51476;DHT22;37554;50.362;7.568;2023-08-31T00:05:01;21.20;61.70
51476;DHT22;37554;50.362;7.568;2023-08-31T00:07:29;21.20;61.70
51476;DHT22;37554;50.362;7.568;2023-08-31T00:09:55;21.20;61.60
51476;DHT22;37554;50.362;7.568;2023-08-31T00:12:20;21.20;61.70
51476;DHT22;37554;50.362;7.568;2023-08-31T00:14:49;21.20;61.60
51476;DHT22;37554;50.362;7.568;2023-08-31T00:17:14;21.20;61.70
51476;DHT22;37554;50.362;7.568;2023-08-31T00:19:40;21.20;61.70
51476;DHT22;37554;50.362;7.568;2023-08-31T00:22:06;21.20;61.70
51476;DHT22;37554;50.362;7.568;2023-08-31T00:24:31;21.10;61.70
51476;DHT22;37554;50.362;7.568;2023-08-31T00:26:57;21.10;61.70
51476;DHT22;37554;50.362;7.568;2023-08-31T00:29:23;21.10;61.70
51476;DHT22;37554;50.362;7.568;2023-08-31T00:31:51;21.10;61.60
51476;DHT22;37554;50.362;7.568;2023-08-31T00:34:16;21.10;61.60
51476;DHT22;37554;50.362;7.568;2023-08-31T00:36:43;21.10;61.70
51476;DHT22;37554;50.362;7.568;2023-08-31T00:39:08;21.10;61.70
51476;DHT22;37554;50.362;7.568;2023-08-31T00:41:36;21.10;61.60
51476;DHT22;37554;50.362;7.568;2023-08-31T00:44:02;21.10;61.70
51476;DHT22;37554;50.362;7.568;2023-08-31T00:46:31;21.10;61.60
51476;DHT22;37554;50.362;7.568;2023-08-31T00:48:57;21.10;61.70
51476;DHT22;37554;50.362;7.568;2023-08-31T00:51:24;21.00;61.70
51476;DHT22;37554;50.362;7.568;2023-08-31T00:53:51;21.00;61.70
51476;DHT22;37554;50.362;7.568;2023-08-31T00:56:19;21.00;61.70
51476;DHT22;37554;50.362;7.568;2023-08-31T00:58:44;21.00;61.70
51476;DHT22;37554;50.362;7.568;2023-08-31T01:01:34;21.00;61.70
51476;DHT22;37554;50.362;7.568;2023-08-31T01:09:39;21.00;61.80
51476;DHT22;37554;50.362;7.568;2023-08-31T01:12:11;21.00;61.80
51476;DHT22;37554;50.362;7.568;2023-08-31T01:14:50;21.00;61.80
51476;DHT22;37554;50.362;7.568;2023-08-31T01:17:17;20.90;61.70
51476;DHT22;37554;50.362;7.568;2023-08-31T01:19:50;20.90;61.70
51476;DHT22;37554;50.362;7.568;2023-08-31T01:25:04;20.90;61.70
51476;DHT22;37554;50.362;7.568;2023-08-31T01:27:31;20.90;61.70
51476;DHT22;37554;50.362;7.568;2023-08-31T01:29:57;20.90;61.90
51476;DHT22;37554;50.362;7.568;2023-08-31T01:32:23;20.90;61.80
51476;DHT22;37554;50.362;7.568;2023-08-31T01:34:50;20.90;61.80
51476;DHT22;37554;50.362;7.568;2023-08-31T01:37:26;20.80;61.80
51476;DHT22;37554;50.362;7.568;2023-08-31T01:39:55;20.80;61.80
51476;DHT22;37554;50.362;7.568;2023-08-31T01:42:22;20.80;61.80
51476;DHT22;37554;50.362;7.568;2023-08-31T01:44:51;20.80;61.80
51476;DHT22;37554;50.362;7.568;2023-08-31T01:47:17;20.80;61.80
51476;DHT22;37554;50.362;7.568;2023-08-31T01:49:45;20.80;61.80
51476;DHT22;37554;50.362;7.568;2023-08-31T01:52:10;20.80;61.70
51476;DHT22;37554;50.362;7.568;2023-08-31T01:54:36;20.80;61.70
51476;DHT22;37554;50.362;7.568;2023-08-31T01:57:03;20.80;61.70
51476;DHT22;37554;50.362;7.568;2023-08-31T01:59:28;20.80;61.80
51476;DHT22;37554;50.362;7.568;2023-08-31T02:01:54;20.80;61.80
51476;DHT22;37554;50.362;7.568;2023-08-31T02:04:20;20.80;61.80
51476;DHT22;37554;50.362;7.568;2023-08-31T02:06:45;20.80;61.80
51476;DHT22;37554;50.362;7.568;2023-08-31T02:09:13;20.80;61.80
51476;DHT22;37554;50.362;7.568;2023-08-31T02:11:38;20.80;61.80
51476;DHT22;37554;50.362;7.568;2023-08-31T02:14:05;20.80;61.80
51476;DHT22;37554;50.362;7.568;2023-08-31T02:16:31;20.80;61.80
51476;DHT22;37554;50.362;7.568;2023-08-31T02:18:57;20.80;61.80
51476;DHT22;37554;50.362;7.568;2023-08-31T02:21:23;20.70;61.80
51476;DHT22;37554;50.362;7.568;2023-08-31T02:23:48;20.70;61.80
51476;DHT22;37554;50.362;7.568;2023-08-31T02:26:14;20.70;61.70
51476;DHT22;37554;50.362;7.568;2023-08-31T02:28:39;20.70;61.80
51476;DHT22;37554;50.362;7.568;2023-08-31T02:31:05;20.70;61.80
51476;DHT22;37554;50.362;7.568;2023-08-31T02:33:31;20.70;61.80
51476;DHT22;37554;50.362;7.568;2023-08-31T02:35:57;20.70;61.80
51476;DHT22;37554;50.362;7.568;2023-08-31T02:38:22;20.70;61.80
51476;DHT22;37554;50.362;7.568;2023-08-31T02:40:49;20.70;61.90
51476;DHT22;37554;50.362;7.568;2023-08-31T02:43:15;20.70;61.90
51476;DHT22;37554;50.362;7.568;2023-08-31T02:45:40;20.70;61.90
51476;DHT22;37554;50.362;7.568;2023-08-31T02:48:07;20.70;61.90
51476;DHT22;37554;50.362;7.568;2023-08-31T02:50:34;20.70;61.90
51476;DHT22;37554;50.362;7.568;2023-08-31T02:53:00;20.70;61.90
51476;DHT22;37554;50.362;7.568;2023-08-31T02:55:25;20.70;61.80
51476;DHT22;37554;50.362;7.568;2023-08-31T02:57:51;20.60;61.80
51476;DHT22;37554;50.362;7.568;2023-08-31T03:00:17;20.60;61.80
51476;DHT22;37554;50.362;7.568;2023-08-31T03:02:47;20.60;61.70
51476;DHT22;37554;50.362;7.568;2023-08-31T03:05:13;20.60;61.70
51476;DHT22;37554;50.362;7.568;2023-08-31T03:07:38;20.60;61.70
51476;DHT22;37554;50.362;7.568;2023-08-31T03:10:04;20.60;61.70
51476;DHT22;37554;50.362;7.568;2023-08-31T03:12:30;20.60;61.70
51476;DHT22;37554;50.362;7.568;2023-08-31T03:14:55;20.50;61.70
51476;DHT22;37554;50.362;7.568;2023-08-31T03:17:21;20.50;61.70
51476;DHT22;37554;50.362;7.568;2023-08-31T03:19:47;20.50;61.70
51476;DHT22;37554;50.362;7.568;2023-08-31T03:22:12;20.50;61.60
51476;DHT22;37554;50.362;7.568;2023-08-31T03:24:38;20.50;61.60
51476;DHT22;37554;50.362;7.568;2023-08-31T03:27:03;20.50;61.70
51476;DHT22;37554;50.362;7.568;2023-08-31T03:29:29;20.50;61.60
51476;DHT22;37554;50.362;7.568;2023-08-31T03:31:57;20.40;61.60
51476;DHT22;37554;50.362;7.568;2023-08-31T03:34:23;20.50;61.60
51476;DHT22;37554;50.362;7.568;2023-08-31T03:36:48;20.40;61.60
51476;DHT22;37554;50.362;7.568;2023-08-31T03:39:15;20.40;61.60
51476;DHT22;37554;50.362;7.568;2023-08-31T03:41:41;20.40;61.60
51476;DHT22;37554;50.362;7.568;2023-08-31T03:44:06;20.40;61.60
51476;DHT22;37554;50.362;7.568;2023-08-31T03:46:32;20.40;61.60
51476;DHT22;37554;50.362;7.568;2023-08-31T03:48:58;20.40;61.60
51476;DHT22;37554;50.362;7.568;2023-08-31T03:51:23;20.40;61.60
51476;DHT22;37554;50.362;7.568;2023-08-31T03:53:49;20.40;61.50
51476;DHT22;37554;50.362;7.568;2023-08-31T03:56:14;20.30;61.50
51476;DHT22;37554;50.362;7.568;2023-08-31T03:58:40;20.30;61.50
51476;DHT22;37554;50.362;7.568;2023-08-31T04:01:06;20.30;61.50
51476;DHT22;37554;50.362;7.568;2023-08-31T04:03:31;20.30;61.50
51476;DHT22;37554;50.362;7.568;2023-08-31T04:05:57;20.30;61.50
51476;DHT22;37554;50.362;7.568;2023-08-31T04:08:23;20.30;61.50
51476;DHT22;37554;50.362;7.568;2023-08-31T04:10:48;20.30;61.40
51476;DHT22;37554;50.362;7.568;2023-08-31T04:13:14;20.30;61.50
51476;DHT22;37554;50.362;7.568;2023-08-31T04:15:39;20.20;61.40
51476;DHT22;37554;50.362;7.568;2023-08-31T04:18:05;20.20;61.40
51476;DHT22;37554;50.362;7.568;2023-08-31T04:20:32;20.20;61.50
51476;DHT22;37554;50.362;7.568;2023-08-31T04:22:58;20.20;61.40
51476;DHT22;37554;50.362;7.568;2023-08-31T04:25:24;20.20;61.50
51476;DHT22;37554;50.362;7.568;2023-08-31T04:27:49;20.20;61.60
51476;DHT22;37554;50.362;7.568;2023-08-31T04:30:15;20.20;61.60
51476;DHT22;37554;50.362;7.568;2023-08-31T04:32:41;20.10;61.50
51476;DHT22;37554;50.362;7.568;2023-08-31T04:35:07;20.10;61.50
51476;DHT22;37554;50.362;7.568;2023-08-31T04:37:33;20.10;61.50
51476;DHT22;37554;50.362;7.568;2023-08-31T04:39:58;20.10;61.50
51476;DHT22;37554;50.362;7.568;2023-08-31T04:42:24;20.20;61.60
51476;DHT22;37554;50.362;7.568;2023-08-31T04:44:50;20.10;61.60
51476;DHT22;37554;50.362;7.568;2023-08-31T04:47:15;20.10;61.60
51476;DHT22;37554;50.362;7.568;2023-08-31T04:49:41;20.10;61.70
51476;DHT22;37554;50.362;7.568;2023-08-31T04:52:08;20.10;61.60
51476;DHT22;37554;50.362;7.568;2023-08-31T04:54:33;20.10;61.60
51476;DHT22;37554;50.362;7.568;2023-08-31T04:56:59;20.10;61.50
51476;DHT22;37554;50.362;7.568;2023-08-31T04:59:25;20.10;61.50
51476;DHT22;37554;50.362;7.568;2023-08-31T05:01:50;20.10;61.50
51476;DHT22;37554;50.362;7.568;2023-08-31T05:04:16;20.10;61.60
51476;DHT22;37554;50.362;7.568;2023-08-31T05:06:41;20.10;61.60
51476;DHT22;37554;50.362;7.568;2023-08-31T05:09:07;20.10;61.50
51476;DHT22;37554;50.362;7.568;2023-08-31T05:11:33;20.10;61.40
51476;DHT22;37554;50.362;7.568;2023-08-31T05:13:59;20.10;61.40
51476;DHT22;37554;50.362;7.568;2023-08-31T05:16:24;20.10;61.40
51476;DHT22;37554;50.362;7.568;2023-08-31T05:18:50;20.10;61.40
51476;DHT22;37554;50.362;7.568;2023-08-31T05:21:16;20.10;61.30
51476;DHT22;37554;50.362;7.568;2023-08-31T05:23:41;20.10;61.20
51476;DHT22;37554;50.362;7.568;2023-08-31T05:26:07;20.10;61.20
51476;DHT22;37554;50.362;7.568;2023-08-31T05:28:32;20.10;61.10
51476;DHT22;37554;50.362;7.568;2023-08-31T05:31:01;20.10;61.10
51476;DHT22;37554;50.362;7.568;2023-08-31T05:33:28;20.10;61.00
51476;DHT22;37554;50.362;7.568;2023-08-31T05:35:55;20.20;61.10
51476;DHT22;37554;50.362;7.568;2023-08-31T05:38:20;20.20;61.00
51476;DHT22;37554;50.362;7.568;2023-08-31T05:40:46;20.20;61.00
51476;DHT22;37554;50.362;7.568;2023-08-31T05:43:12;20.20;60.90
51476;DHT22;37554;50.362;7.568;2023-08-31T05:45:38;20.20;60.90
51476;DHT22;37554;50.362;7.568;2023-08-31T05:48:04;20.30;60.90
51476;DHT22;37554;50.362;7.568;2023-08-31T05:50:30;20.30;60.90
51476;DHT22;37554;50.362;7.568;2023-08-31T05:52:56;20.30;60.80
51476;DHT22;37554;50.362;7.568;2023-08-31T05:55:22;20.30;60.70
51476;DHT22;37554;50.362;7.568;2023-08-31T05:57:48;20.40;61.30
51476;DHT22;37554;50.362;7.568;2023-08-31T06:00:14;20.40;60.60
51476;DHT22;37554;50.362;7.568;2023-08-31T06:02:39;20.40;60.50
51476;DHT22;37554;50.362;7.568;2023-08-31T06:05:05;20.40;60.20
51476;DHT22;37554;50.362;7.568;2023-08-31T06:07:31;20.20;60.10
51476;DHT22;37554;50.362;7.568;2023-08-31T06:09:57;19.90;60.40
51476;DHT22;37554;50.362;7.568;2023-08-31T06:12:23;19.70;60.70
51476;DHT22;37554;50.362;7.568;2023-08-31T06:14:49;19.60;60.80
51476;DHT22;37554;50.362;7.568;2023-08-31T06:17:14;19.50;60.90
51476;DHT22;37554;50.362;7.568;2023-08-31T06:19:41;19.40;61.10
51476;DHT22;37554;50.362;7.568;2023-08-31T06:22:07;19.60;61.10
51476;DHT22;37554;50.362;7.568;2023-08-31T06:24:32;19.80;60.80
51476;DHT22;37554;50.362;7.568;2023-08-31T06:26:59;19.90;60.40
51476;DHT22;37554;50.362;7.568;2023-08-31T06:29:25;20.10;60.10
51476;DHT22;37554;50.362;7.568;2023-08-31T06:31:50;20.20;59.80
51476;DHT22;37554;50.362;7.568;2023-08-31T06:34:16;20.40;59.70
51476;DHT22;37554;50.362;7.568;2023-08-31T06:36:42;20.50;59.60
51476;DHT22;37554;50.362;7.568;2023-08-31T06:39:07;20.60;59.40
51476;DHT22;37554;50.362;7.568;2023-08-31T06:41:33;20.70;59.20
51476;DHT22;37554;50.362;7.568;2023-08-31T06:43:59;20.80;59.10
51476;DHT22;37554;50.362;7.568;2023-08-31T06:46:24;20.80;59.00
51476;DHT22;37554;50.362;7.568;2023-08-31T06:48:50;20.90;58.90
51476;DHT22;37554;50.362;7.568;2023-08-31T06:51:16;20.90;58.90
51476;DHT22;37554;50.362;7.568;2023-08-31T06:53:43;21.00;58.90
51476;DHT22;37554;50.362;7.568;2023-08-31T06:56:09;21.00;58.90
51476;DHT22;37554;50.362;7.568;2023-08-31T06:58:34;21.10;58.90
51476;DHT22;37554;50.362;7.568;2023-08-31T07:01:00;21.20;58.80
51476;DHT22;37554;50.362;7.568;2023-08-31T07:03:26;21.20;58.70
51476;DHT22;37554;50.362;7.568;2023-08-31T07:05:52;21.30;58.60
51476;DHT22;37554;50.362;7.568;2023-08-31T07:08:17;21.20;57.90
51476;DHT22;37554;50.362;7.568;2023-08-31T07:10:43;20.90;58.00
51476;DHT22;37554;50.362;7.568;2023-08-31T07:13:09;20.70;58.20
51476;DHT22;37554;50.362;7.568;2023-08-31T07:15:35;20.60;58.50
51476;DHT22;37554;50.362;7.568;2023-08-31T07:18:00;20.50;58.90
51476;DHT22;37554;50.362;7.568;2023-08-31T07:20:26;20.70;58.80
51476;DHT22;37554;50.362;7.568;2023-08-31T07:22:52;20.80;58.30
51476;DHT22;37554;50.362;7.568;2023-08-31T07:25:17;21.00;58.10
51476;DHT22;37554;50.362;7.568;2023-08-31T07:27:43;21.10;57.80
51476;DHT22;37554;50.362;7.568;2023-08-31T07:30:09;21.20;57.40
51476;DHT22;37554;50.362;7.568;2023-08-31T07:32:36;21.30;57.20
51476;DHT22;37554;50.362;7.568;2023-08-31T07:35:01;21.30;56.80
51476;DHT22;37554;50.362;7.568;2023-08-31T07:37:30;21.10;56.90
51476;DHT22;37554;50.362;7.568;2023-08-31T07:39:55;21.10;57.00
51476;DHT22;37554;50.362;7.568;2023-08-31T07:42:21;21.10;56.90
51476;DHT22;37554;50.362;7.568;2023-08-31T07:44:46;21.10;57.10
51476;DHT22;37554;50.362;7.568;2023-08-31T07:47:12;21.20;57.00
51476;DHT22;37554;50.362;7.568;2023-08-31T07:49:38;21.20;56.80
51476;DHT22;37554;50.362;7.568;2023-08-31T07:52:04;21.20;56.80
51476;DHT22;37554;50.362;7.568;2023-08-31T07:54:30;21.30;56.70
51476;DHT22;37554;50.362;7.568;2023-08-31T07:56:55;21.30;56.70
51476;DHT22;37554;50.362;7.568;2023-08-31T07:59:21;21.30;56.50
51476;DHT22;37554;50.362;7.568;2023-08-31T08:01:47;21.40;56.60
51476;DHT22;37554;50.362;7.568;2023-08-31T08:04:13;21.40;56.50
51476;DHT22;37554;50.362;7.568;2023-08-31T08:06:39;21.40;56.40
51476;DHT22;37554;50.362;7.568;2023-08-31T08:09:05;21.40;56.30
51476;DHT22;37554;50.362;7.568;2023-08-31T08:11:31;21.40;56.20
51476;DHT22;37554;50.362;7.568;2023-08-31T08:13:57;21.40;56.20
51476;DHT22;37554;50.362;7.568;2023-08-31T08:16:23;21.40;56.10
51476;DHT22;37554;50.362;7.568;2023-08-31T08:18:50;21.40;56.20
51476;DHT22;37554;50.362;7.568;2023-08-31T08:21:15;21.40;56.70
51476;DHT22;37554;50.362;7.568;2023-08-31T08:23:41;21.50;56.10
51476;DHT22;37554;50.362;7.568;2023-08-31T08:26:06;21.40;56.20
51476;DHT22;37554;50.362;7.568;2023-08-31T08:28:33;21.50;56.00
51476;DHT22;37554;50.362;7.568;2023-08-31T08:31:02;21.60;55.90
51476;DHT22;37554;50.362;7.568;2023-08-31T08:33:31;21.60;55.80
51476;DHT22;37554;50.362;7.568;2023-08-31T08:35:57;21.70;55.70
51476;DHT22;37554;50.362;7.568;2023-08-31T08:38:23;21.70;55.60
51476;DHT22;37554;50.362;7.568;2023-08-31T08:40:49;21.70;55.60
51476;DHT22;37554;50.362;7.568;2023-08-31T08:43:14;21.80;55.60
51476;DHT22;37554;50.362;7.568;2023-08-31T08:45:40;22.00;55.60
51476;DHT22;37554;50.362;7.568;2023-08-31T08:48:08;22.20;55.30
51476;DHT22;37554;50.362;7.568;2023-08-31T08:50:35;22.30;54.90
51476;DHT22;37554;50.362;7.568;2023-08-31T08:53:03;22.60;54.60
51476;DHT22;37554;50.362;7.568;2023-08-31T08:55:28;22.70;54.20
51476;DHT22;37554;50.362;7.568;2023-08-31T08:57:55;22.70;54.10
51476;DHT22;37554;50.362;7.568;2023-08-31T09:00:20;22.60;54.00
51476;DHT22;37554;50.362;7.568;2023-08-31T09:02:46;22.50;54.30
51476;DHT22;37554;50.362;7.568;2023-08-31T09:05:12;22.50;54.40
51476;DHT22;37554;50.362;7.568;2023-08-31T09:07:46;22.60;54.60
51476;DHT22;37554;50.362;7.568;2023-08-31T09:10:25;22.60;54.40
51476;DHT22;37554;50.362;7.568;2023-08-31T09:13:00;22.60;54.20
51476;DHT22;37554;50.362;7.568;2023-08-31T09:15:25;22.60;54.20
51476;DHT22;37554;50.362;7.568;2023-08-31T09:17:51;22.70;53.70
51476;DHT22;37554;50.362;7.568;2023-08-31T09:20:17;22.70;53.80
51476;DHT22;37554;50.362;7.568;2023-08-31T09:22:43;22.60;53.70
51476;DHT22;37554;50.362;7.568;2023-08-31T09:25:11;22.50;54.00
51476;DHT22;37554;50.362;7.568;2023-08-31T09:27:38;22.60;54.00
51476;DHT22;37554;50.362;7.568;2023-08-31T09:30:08;22.70;53.70
51476;DHT22;37554;50.362;7.568;2023-08-31T09:32:34;22.70;53.50
51476;DHT22;37554;50.362;7.568;2023-08-31T09:34:59;22.80;53.70
51476;DHT22;37554;50.362;7.568;2023-08-31T09:37:28;22.80;53.60
51476;DHT22;37554;50.362;7.568;2023-08-31T09:39:54;22.70;53.50
51476;DHT22;37554;50.362;7.568;2023-08-31T09:42:20;22.60;53.60
51476;DHT22;37554;50.362;7.568;2023-08-31T09:44:45;22.60;53.70
51476;DHT22;37554;50.362;7.568;2023-08-31T09:47:14;22.50;53.60
51476;DHT22;37554;50.362;7.568;2023-08-31T09:49:41;22.20;54.10
51476;DHT22;37554;50.362;7.568;2023-08-31T09:52:09;22.00;54.60
51476;DHT22;37554;50.362;7.568;2023-08-31T09:54:35;21.80;54.80
51476;DHT22;37554;50.362;7.568;2023-08-31T09:57:02;21.90;55.00
51476;DHT22;37554;50.362;7.568;2023-08-31T09:59:28;21.90;55.00
51476;DHT22;37554;50.362;7.568;2023-08-31T10:01:54;22.10;54.70
51476;DHT22;37554;50.362;7.568;2023-08-31T10:04:22;22.10;54.60
51476;DHT22;37554;50.362;7.568;2023-08-31T10:06:49;22.00;54.70
51476;DHT22;37554;50.362;7.568;2023-08-31T10:09:14;22.00;55.00
51476;DHT22;37554;50.362;7.568;2023-08-31T10:11:41;22.10;54.80
51476;DHT22;37554;50.362;7.568;2023-08-31T10:14:10;22.30;54.70
51476;DHT22;37554;50.362;7.568;2023-08-31T10:16:39;22.40;54.40
51476;DHT22;37554;50.362;7.568;2023-08-31T10:19:05;22.40;53.90
51476;DHT22;37554;50.362;7.568;2023-08-31T10:21:30;22.50;53.60
51476;DHT22;37554;50.362;7.568;2023-08-31T10:23:57;22.60;53.30
51476;DHT22;37554;50.362;7.568;2023-08-31T10:26:27;22.60;53.10
51476;DHT22;37554;50.362;7.568;2023-08-31T10:28:54;22.50;53.30
51476;DHT22;37554;50.362;7.568;2023-08-31T10:31:21;22.40;53.60
51476;DHT22;37554;50.362;7.568;2023-08-31T10:34:02;22.30;53.50
51476;DHT22;37554;50.362;7.568;2023-08-31T10:36:46;22.40;53.00
51476;DHT22;37554;50.362;7.568;2023-08-31T10:39:16;22.60;53.00
51476;DHT22;37554;50.362;7.568;2023-08-31T10:41:42;22.60;52.80
51476;DHT22;37554;50.362;7.568;2023-08-31T10:44:19;22.60;52.70
51476;DHT22;37554;50.362;7.568;2023-08-31T10:46:45;22.70;52.50
51476;DHT22;37554;50.362;7.568;2023-08-31T10:51:50;22.60;52.60
51476;DHT22;37554;50.362;7.568;2023-08-31T10:59:52;22.80;51.40
51476;DHT22;37554;50.362;7.568;2023-08-31T11:02:28;23.00;50.50
51476;DHT22;37554;50.362;7.568;2023-08-31T11:05:14;23.10;50.30
51476;DHT22;37554;50.362;7.568;2023-08-31T11:07:41;22.90;50.90
51476;DHT22;37554;50.362;7.568;2023-08-31T11:10:08;22.70;51.10
51476;DHT22;37554;50.362;7.568;2023-08-31T11:12:35;22.50;51.20
51476;DHT22;37554;50.362;7.568;2023-08-31T11:15:01;22.40;51.40
51476;DHT22;37554;50.362;7.568;2023-08-31T11:17:29;22.20;51.40
51476;DHT22;37554;50.362;7.568;2023-08-31T11:19:56;22.10;51.50
51476;DHT22;37554;50.362;7.568;2023-08-31T11:22:22;22.20;52.00
51476;DHT22;37554;50.362;7.568;2023-08-31T11:24:47;22.70;51.50
51476;DHT22;37554;50.362;7.568;2023-08-31T11:27:14;23.30;50.70
51476;DHT22;37554;50.362;7.568;2023-08-31T11:29:43;24.40;49.30
51476;DHT22;37554;50.362;7.568;2023-08-31T11:32:09;25.50;47.40
51476;DHT22;37554;50.362;7.568;2023-08-31T11:34:35;26.60;45.80
51476;DHT22;37554;50.362;7.568;2023-08-31T11:37:05;27.00;44.40
51476;DHT22;37554;50.362;7.568;2023-08-31T11:39:31;26.60;44.40
51476;DHT22;37554;50.362;7.568;2023-08-31T11:41:57;26.40;44.70
51476;DHT22;37554;50.362;7.568;2023-08-31T11:44:23;26.20;45.00
51476;DHT22;37554;50.362;7.568;2023-08-31T11:46:49;25.90;45.20
51476;DHT22;37554;50.362;7.568;2023-08-31T11:49:19;25.80;45.60
51476;DHT22;37554;50.362;7.568;2023-08-31T11:51:47;25.70;45.70
51476;DHT22;37554;50.362;7.568;2023-08-31T11:54:17;25.80;45.50
51476;DHT22;37554;50.362;7.568;2023-08-31T11:56:44;26.00;45.40
51476;DHT22;37554;50.362;7.568;2023-08-31T11:59:12;25.90;45.00
51476;DHT22;37554;50.362;7.568;2023-08-31T12:01:42;25.60;45.40
51476;DHT22;37554;50.362;7.568;2023-08-31T12:06:37;25.00;45.90
51476;DHT22;37554;50.362;7.568;2023-08-31T12:09:05;24.80;46.20
51476;DHT22;37554;50.362;7.568;2023-08-31T12:11:31;24.70;46.50
51476;DHT22;37554;50.362;7.568;2023-08-31T12:14:03;24.60;46.80
51476;DHT22;37554;50.362;7.568;2023-08-31T12:16:34;24.50;47.00
51476;DHT22;37554;50.362;7.568;2023-08-31T12:19:02;24.40;47.30
51476;DHT22;37554;50.362;7.568;2023-08-31T12:21:30;24.40;47.20
51476;DHT22;37554;50.362;7.568;2023-08-31T12:23:59;24.40;47.40
51476;DHT22;37554;50.362;7.568;2023-08-31T12:26:28;24.40;47.40
51476;DHT22;37554;50.362;7.568;2023-08-31T12:28:54;24.70;47.40
51476;DHT22;37554;50.362;7.568;2023-08-31T12:31:21;25.10;46.50
51476;DHT22;37554;50.362;7.568;2023-08-31T12:33:46;25.70;45.70
51476;DHT22;37554;50.362;7.568;2023-08-31T12:36:12;26.40;44.90
51476;DHT22;37554;50.362;7.568;2023-08-31T12:38:40;26.40;44.40
51476;DHT22;37554;50.362;7.568;2023-08-31T12:41:05;26.10;44.50
51476;DHT22;37554;50.362;7.568;2023-08-31T12:43:31;25.80;44.80
51476;DHT22;37554;50.362;7.568;2023-08-31T12:45:57;25.50;45.10
51476;DHT22;37554;50.362;7.568;2023-08-31T12:48:23;25.20;45.60
51476;DHT22;37554;50.362;7.568;2023-08-31T12:50:49;24.90;45.80
51476;DHT22;37554;50.362;7.568;2023-08-31T12:53:15;24.70;46.20
51476;DHT22;37554;50.362;7.568;2023-08-31T12:55:41;24.60;46.30
51476;DHT22;37554;50.362;7.568;2023-08-31T12:58:07;24.60;46.40
51476;DHT22;37554;50.362;7.568;2023-08-31T13:00:33;24.70;46.30
51476;DHT22;37554;50.362;7.568;2023-08-31T13:02:59;25.00;46.10
51476;DHT22;37554;50.362;7.568;2023-08-31T13:05:26;25.30;45.70
51476;DHT22;37554;50.362;7.568;2023-08-31T13:07:54;25.70;45.30
51476;DHT22;37554;50.362;7.568;2023-08-31T13:10:20;26.00;44.70
51476;DHT22;37554;50.362;7.568;2023-08-31T13:12:46;26.60;44.40
51476;DHT22;37554;50.362;7.568;2023-08-31T13:15:12;29.10;41.70
51476;DHT22;37554;50.362;7.568;2023-08-31T13:17:39;30.30;39.20
51476;DHT22;37554;50.362;7.568;2023-08-31T13:20:05;31.70;37.80
51476;DHT22;37554;50.362;7.568;2023-08-31T13:22:31;33.30;36.10
51476;DHT22;37554;50.362;7.568;2023-08-31T13:24:57;34.70;34.90
51476;DHT22;37554;50.362;7.568;2023-08-31T13:27:23;35.80;33.20
51476;DHT22;37554;50.362;7.568;2023-08-31T13:29:49;34.10;32.80
51476;DHT22;37554;50.362;7.568;2023-08-31T13:32:14;32.00;34.00
51476;DHT22;37554;50.362;7.568;2023-08-31T13:34:40;30.50;35.20
51476;DHT22;37554;50.362;7.568;2023-08-31T13:37:06;29.50;36.50
51476;DHT22;37554;50.362;7.568;2023-08-31T13:39:34;28.90;37.20
51476;DHT22;37554;50.362;7.568;2023-08-31T13:42:05;28.50;37.70
51476;DHT22;37554;50.362;7.568;2023-08-31T13:44:32;28.10;38.10
51476;DHT22;37554;50.362;7.568;2023-08-31T13:46:58;27.80;38.50
51476;DHT22;37554;50.362;7.568;2023-08-31T13:49:23;27.60;38.70
51476;DHT22;37554;50.362;7.568;2023-08-31T13:51:49;27.50;38.70
51476;DHT22;37554;50.362;7.568;2023-08-31T13:54:15;27.40;38.50
51476;DHT22;37554;50.362;7.568;2023-08-31T13:56:40;27.30;38.80
51476;DHT22;37554;50.362;7.568;2023-08-31T13:59:06;27.20;38.90
51476;DHT22;37554;50.362;7.568;2023-08-31T14:01:32;26.90;38.90
51476;DHT22;37554;50.362;7.568;2023-08-31T14:03:58;26.60;39.40
51476;DHT22;37554;50.362;7.568;2023-08-31T14:06:23;26.20;39.50
51476;DHT22;37554;50.362;7.568;2023-08-31T14:08:49;26.00;39.50
51476;DHT22;37554;50.362;7.568;2023-08-31T14:11:15;26.60;39.30
51476;DHT22;37554;50.362;7.568;2023-08-31T14:13:43;26.60;38.80
51476;DHT22;37554;50.362;7.568;2023-08-31T14:16:08;26.40;38.80
51476;DHT22;37554;50.362;7.568;2023-08-31T14:18:34;26.40;38.90
51476;DHT22;37554;50.362;7.568;2023-08-31T14:21:00;26.60;38.70
51476;DHT22;37554;50.362;7.568;2023-08-31T14:23:26;26.60;38.70
51476;DHT22;37554;50.362;7.568;2023-08-31T14:25:52;26.20;39.20
51476;DHT22;37554;50.362;7.568;2023-08-31T14:28:17;25.80;39.60
51476;DHT22;37554;50.362;7.568;2023-08-31T14:30:43;25.50;39.60
51476;DHT22;37554;50.362;7.568;2023-08-31T14:33:08;25.30;39.90
51476;DHT22;37554;50.362;7.568;2023-08-31T14:35:38;25.30;40.00
51476;DHT22;37554;50.362;7.568;2023-08-31T14:38:04;25.80;39.70
51476;DHT22;37554;50.362;7.568;2023-08-31T14:40:29;27.00;38.70
51476;DHT22;37554;50.362;7.568;2023-08-31T14:42:55;27.40;38.00
51476;DHT22;37554;50.362;7.568;2023-08-31T14:45:21;27.20;38.20
51476;DHT22;37554;50.362;7.568;2023-08-31T14:47:46;27.10;38.40
51476;DHT22;37554;50.362;7.568;2023-08-31T14:50:12;26.80;38.80
51476;DHT22;37554;50.362;7.568;2023-08-31T14:52:38;26.60;39.10
51476;DHT22;37554;50.362;7.568;2023-08-31T14:55:04;26.30;38.90
51476;DHT22;37554;50.362;7.568;2023-08-31T14:57:30;25.80;39.40
51476;DHT22;37554;50.362;7.568;2023-08-31T14:59:56;25.60;40.00
51476;DHT22;37554;50.362;7.568;2023-08-31T15:02:24;25.50;40.40
51476;DHT22;37554;50.362;7.568;2023-08-31T15:04:50;25.70;40.60
51476;DHT22;37554;50.362;7.568;2023-08-31T15:07:18;25.70;40.70
51476;DHT22;37554;50.362;7.568;2023-08-31T15:09:44;25.80;40.80
51476;DHT22;37554;50.362;7.568;2023-08-31T15:12:11;25.80;40.90
51476;DHT22;37554;50.362;7.568;2023-08-31T15:14:37;25.80;40.80
51476;DHT22;37554;50.362;7.568;2023-08-31T15:17:06;25.70;41.10
51476;DHT22;37554;50.362;7.568;2023-08-31T15:19:31;25.50;41.40
51476;DHT22;37554;50.362;7.568;2023-08-31T15:21:58;25.30;41.40
51476;DHT22;37554;50.362;7.568;2023-08-31T15:24:24;24.90;41.80
51476;DHT22;37554;50.362;7.568;2023-08-31T15:26:50;24.70;42.20
51476;DHT22;37554;50.362;7.568;2023-08-31T15:29:16;24.50;42.40
51476;DHT22;37554;50.362;7.568;2023-08-31T15:31:41;24.40;42.70
51476;DHT22;37554;50.362;7.568;2023-08-31T15:34:10;24.30;43.10
51476;DHT22;37554;50.362;7.568;2023-08-31T15:36:36;24.20;43.30
51476;DHT22;37554;50.362;7.568;2023-08-31T15:39:02;24.10;43.60
51476;DHT22;37554;50.362;7.568;2023-08-31T15:41:28;23.90;43.90
51476;DHT22;37554;50.362;7.568;2023-08-31T15:44:00;23.90;44.30